Ελευσίνα, Ελλάδα

10:53 PM EEST on Αύγουστος 30, 2015 (GMT +0300)
Elefsis Air Base | | Change Station
CLOSE
Current Station
Airport
Location: Elefsis,
Elevation: 102 ft
Nearby Weather Stations

Elev 102 ft 38.06 °N, 23.56 °E | Updated 33 minutes ago

Clear
Αίθριος
84 ° F
Feels Like 84 ° F
N
6
Ανεμος Μεταβλητός Ανεμος from Βόρειος

Σήμερα
High -- | Low -- ° F
--% Chance of Precip.
Yesterday
High -- | Low -- ° F
Precip. -- in
6:53 AM 7:59 PM
Πανσέληνος, 98% visible
Ατμοσφαιρική Πίεση 30.04 in
Ορατότητα -9999.0 Μίλια
Σύννεφα
Σημείο Δρόσου 46 ° F
Υγρασία 27%
Rainfall 0.00 in
Snow Depth Not available.
Υπεριώδης ακτινοβολία (UV) Not available.
Pollen Not available.
Air Quality Not available.
Flu Activity Not available.
METAR LGEL 301920Z 35005KT CAVOK 29/08 Q1017
Ατμοσφαιρική Πίεση 30.04 in
Ορατότητα -9999.0 Μίλια
Σύννεφα
Σημείο Δρόσου 46 ° F
Υγρασία 27%
Rainfall 0.00 in
Snow Depth Not available.
Υπεριώδης ακτινοβολία (UV) Not available.
Pollen Not available.
Air Quality Not available.
Flu Activity Not available.
METAR LGEL 301920Z 35005KT CAVOK 29/08 Q1017

10-Day Weather Forecast

×

Almanac

Αστρονομία

Aug. 30, 2015 Rise Set
Actual Time
Civil Twilight
Nautical Twilight
Astronomical Twilight
Moon
Length Of Visible Light
Διάρκεια ημέρας
Tomorrow will be .
, % of the Moon is Illuminated

Today's Extremes

Country Highs Country Lows

Community

WunderPhotos

Upload Photos

1,851,041 photos uploaded!

WunderBlogs® & News

Nearby

Air Quality

  Air Quality AQ Index Pollutant
Not available.

Snow Depth

Station Depth Elevation

Earthquake Activity

City Distance Mag. Time & Date
Minimum magnitude displayed is 2.5.

Coastal Water Temperatures

Τοποθεσία Θερμοκρασία

Stations

Nearby Weather Stations

Station Location Temp Δείκτης Ψυχρότητας Σημείο Δρόσου Υγρασία Ανεμος Precip. Elev Ενημερώθηκε Type